createdAt,value
2023-04-01T00:01:52.699Z,17.39501953125
2023-04-01T00:11:52.654Z,17.5048828125
2023-04-01T00:21:52.545Z,17.5048828125
2023-04-01T00:31:52.615Z,17.39501953125
2023-04-01T00:41:52.455Z,17.29736328125
2023-04-01T00:51:52.351Z,17.8955078125
2023-04-01T01:01:52.354Z,17.39501953125
2023-04-01T01:11:52.206Z,17.6025390625
2023-04-01T01:21:52.170Z,17.10205078125
2023-04-01T01:31:52.029Z,17.00439453125
2023-04-01T01:41:52.133Z,17.29736328125
2023-04-01T01:51:51.925Z,17.29736328125
2023-04-01T02:01:51.876Z,17.10205078125
2023-04-01T02:11:51.821Z,17.29736328125
2023-04-01T02:21:51.663Z,17.39501953125
2023-04-01T02:31:51.757Z,17.6025390625
2023-04-01T02:41:51.619Z,17.7001953125
2023-04-01T02:51:51.461Z,17.5048828125
2023-04-01T03:01:51.380Z,17.7001953125
2023-04-01T03:11:51.304Z,17.7978515625
2023-04-01T03:21:51.277Z,17.6025390625
2023-04-01T03:31:51.150Z,17.7001953125
2023-04-01T03:41:51.181Z,17.8955078125
2023-04-01T03:51:51.132Z,17.8955078125
2023-04-01T04:01:50.933Z,17.8955078125
2023-04-01T04:11:50.865Z,18.39599609375
2023-04-01T04:21:50.862Z,18.505859375
2023-04-01T04:31:50.769Z,18.29833984375
2023-04-01T04:41:50.706Z,17.7978515625
2023-04-01T04:51:50.599Z,17.29736328125
2023-04-01T05:01:50.651Z,17.10205078125
2023-04-01T05:11:50.462Z,17.10205078125
2023-04-01T05:21:50.361Z,17.00439453125
2023-04-01T05:31:50.279Z,16.796875
2023-04-01T05:41:50.290Z,16.89453125
2023-04-01T05:51:50.253Z,17.00439453125
2023-04-01T06:01:50.262Z,17.19970703125
2023-04-01T06:11:50.042Z,17.39501953125
2023-04-01T06:21:50.051Z,17.39501953125
2023-04-01T06:31:49.914Z,17.39501953125
2023-04-01T06:41:49.967Z,17.39501953125
2023-04-01T06:51:49.755Z,17.29736328125
2023-04-01T07:01:50.000Z,17.19970703125
2023-04-01T07:11:49.571Z,17.10205078125
2023-04-01T07:21:49.586Z,17.10205078125
2023-04-01T07:31:49.685Z,17.10205078125
2023-04-01T07:41:49.383Z,17.00439453125
2023-04-01T07:51:49.475Z,17.00439453125
2023-04-01T08:01:49.232Z,16.89453125
2023-04-01T08:11:49.159Z,16.89453125
2023-04-01T08:21:49.107Z,16.89453125
2023-04-01T08:31:49.178Z,17.00439453125
2023-04-01T08:41:49.018Z,17.10205078125
2023-04-01T08:51:48.923Z,17.10205078125
2023-04-01T09:01:48.888Z,17.19970703125
2023-04-01T09:11:50.320Z,17.29736328125
2023-04-01T09:21:48.766Z,17.29736328125
2023-04-01T09:31:48.680Z,17.39501953125
2023-04-01T09:41:48.542Z,17.39501953125
2023-04-01T09:51:48.523Z,17.39501953125
2023-04-01T10:01:48.626Z,17.39501953125
2023-04-01T10:11:48.518Z,17.39501953125
2023-04-01T10:21:48.273Z,17.5048828125
2023-04-01T10:31:48.668Z,17.5048828125
2023-04-01T10:41:48.235Z,17.6025390625
2023-04-01T10:51:48.203Z,17.5048828125
2023-04-01T11:11:47.919Z,17.5048828125
2023-04-01T11:21:47.857Z,17.5048828125
2023-04-01T11:31:47.940Z,17.6025390625
2023-04-01T11:41:48.147Z,17.5048828125
2023-04-01T11:51:47.872Z,17.5048828125
2023-04-01T12:01:47.566Z,17.5048828125
2023-04-01T12:11:47.693Z,17.5048828125
2023-04-01T12:21:47.406Z,17.6025390625
2023-04-01T12:31:47.693Z,17.5048828125
2023-04-01T12:41:47.333Z,17.5048828125
2023-04-01T12:51:47.899Z,17.6025390625
2023-04-01T13:01:47.266Z,17.5048828125
2023-04-01T13:11:47.115Z,17.5048828125
2023-04-01T13:21:47.569Z,17.39501953125
2023-04-01T13:31:47.035Z,17.5048828125
2023-04-01T13:41:46.924Z,17.5048828125
2023-04-01T13:51:46.768Z,17.39501953125
2023-04-01T14:01:46.831Z,17.29736328125
2023-04-01T14:11:46.668Z,17.39501953125
2023-04-01T14:21:46.615Z,17.29736328125
2023-04-01T14:31:46.566Z,17.10205078125
2023-04-01T14:41:46.497Z,17.19970703125
2023-04-01T14:51:46.345Z,17.29736328125
2023-04-01T15:01:48.811Z,17.19970703125
2023-04-01T15:11:46.234Z,17.39501953125
2023-04-01T15:21:46.180Z,17.29736328125
2023-04-01T15:31:46.217Z,17.39501953125
2023-04-01T15:41:46.122Z,17.5048828125
2023-04-01T15:51:45.962Z,17.39501953125
2023-04-01T16:01:45.977Z,17.39501953125
2023-04-01T16:11:45.920Z,17.29736328125
2023-04-01T16:21:45.880Z,17.10205078125
2023-04-01T16:31:45.742Z,17.00439453125
2023-04-01T16:41:45.594Z,16.89453125
2023-04-01T16:51:45.631Z,16.796875
2023-04-01T17:01:45.505Z,16.6015625
2023-04-01T17:11:45.470Z,16.50390625
2023-04-01T17:21:45.399Z,16.6015625
2023-04-01T17:31:45.274Z,16.6015625
2023-04-01T17:41:45.212Z,16.50390625
2023-04-01T17:51:45.216Z,16.6015625
2023-04-01T18:01:45.295Z,16.6015625
2023-04-01T18:11:44.949Z,16.6015625
2023-04-01T18:21:44.879Z,16.69921875
2023-04-01T18:31:44.913Z,16.69921875
2023-04-01T18:41:44.829Z,16.796875
2023-04-01T18:51:44.694Z,16.89453125
2023-04-01T19:01:44.745Z,16.89453125
2023-04-01T19:11:44.555Z,16.89453125
2023-04-01T19:21:44.517Z,17.00439453125
2023-04-01T19:31:44.382Z,17.00439453125
2023-04-01T19:41:44.346Z,17.10205078125
2023-04-01T19:51:44.274Z,17.10205078125
2023-04-01T20:01:45.567Z,17.19970703125
2023-04-01T20:11:44.148Z,17.19970703125
2023-04-01T20:21:44.108Z,17.29736328125
2023-04-01T20:31:44.064Z,17.39501953125
2023-04-01T20:41:43.919Z,17.29736328125
2023-04-01T20:51:43.920Z,17.39501953125
2023-04-01T21:01:44.020Z,17.39501953125
2023-04-01T21:11:43.715Z,17.7001953125
2023-04-01T21:21:43.653Z,17.6025390625
2023-04-01T21:31:43.666Z,17.5048828125
2023-04-01T21:41:43.544Z,17.5048828125
2023-04-01T21:51:43.516Z,17.7001953125
2023-04-01T22:01:43.532Z,17.7001953125
2023-04-01T22:11:43.275Z,17.7978515625
2023-04-01T22:21:43.199Z,18.29833984375
2023-04-01T22:31:43.162Z,18.505859375
2023-04-01T22:41:43.144Z,19.8974609375
2023-04-01T22:51:43.064Z,19.49462890625
2023-04-01T23:01:45.245Z,18.994140625
2023-04-01T23:11:42.882Z,19.29931640625
2023-04-01T23:21:42.826Z,20.10498046875
2023-04-01T23:31:42.800Z,20.49560546875
2023-04-01T23:41:42.638Z,20.703125
2023-04-01T23:51:42.549Z,21.20361328125
